Time;durP1;ratioP1;P1;durP2;ratioP2;P2;SDS_P1;SDS_P2;PMS_P1;PMS_P2;Temp;Humidity;BMP_temperature;BMP_pressure;BME280_temperature;BME280_humidity;BME280_pressure;Samples;Min_cycle;Max_cycle;Signal;HPM_P1;HPM_P2
2022/02/15 03:45:51;;;;;;;48.90;27.85;;;2.10;97.80;;;;;;5384414;24;20678;-81
2022/02/15 03:48:33;;;;;;;48.65;26.90;;;2.10;98.60;;;;;;4714849;30;20041;-82
2022/02/15 03:50:58;;;;;;;45.05;26.05;;;2.10;98.60;;;;;;4712375;30;20336;-81
2022/02/15 03:53:25;;;;;;;;;;;2.20;98.40;;;;;;4710374;30;20046;-80
2022/02/15 03:55:52;;;;;;;46.38;26.70;;;2.20;98.20;;;;;;4724139;30;19919;-80
2022/02/15 03:58:20;;;;;;;45.33;25.73;;;2.30;98.30;;;;;;4726495;30;20082;-81
2022/02/15 04:00:46;;;;;;;46.00;26.17;;;2.30;98.40;;;;;;4712569;30;20037;-81
2022/02/15 04:03:19;;;;;;;46.40;27.42;;;2.30;98.40;;;;;;4727234;30;20275;-80
2022/02/15 04:05:47;;;;;;;50.35;30.15;;;2.40;98.30;;;;;;4712865;30;20040;-81
2022/02/15 04:08:12;;;;;;;44.95;25.38;;;2.50;98.60;;;;;;4698476;30;20119;-82
2022/02/15 04:10:38;;;;;;;44.55;25.65;;;2.50;98.30;;;;;;4726482;30;20260;-80
2022/02/15 04:13:06;;;;;;;55.03;27.15;;;2.50;97.90;;;;;;4741715;30;20052;-81
2022/02/15 04:15:32;;;;;;;50.55;28.45;;;2.50;97.70;;;;;;4712539;30;20229;-80
2022/02/15 04:17:59;;;;;;;48.97;26.95;;;2.50;97.90;;;;;;4712874;30;20113;-81
2022/02/15 04:20:25;;;;;;;49.78;28.05;;;2.50;98.30;;;;;;4726889;30;20068;-82
2022/02/15 04:22:51;;;;;;;46.72;28.20;;;2.60;98.40;;;;;;4712440;30;20241;-81
2022/02/15 04:25:18;;;;;;;44.83;27.08;;;2.60;98.10;;;;;;4712433;30;20033;-82
2022/02/15 04:27:45;;;;;;;;;;;2.60;98.20;;;;;;4724231;30;20033;-82
2022/02/15 04:30:11;;;;;;;47.70;26.45;;;2.60;98.00;;;;;;4710169;30;19964;-81
2022/02/15 04:32:41;;;;;;;52.42;29.40;;;2.50;97.80;;;;;;4712749;30;20359;-82
2022/02/15 04:35:08;;;;;;;40.55;25.40;;;2.50;97.90;;;;;;4695059;30;20056;-81
2022/02/15 04:37:36;;;;;;;44.72;26.17;;;2.50;97.90;;;;;;4723847;30;20280;-81
2022/02/15 04:40:06;;;;;;;51.00;28.40;;;2.50;97.80;;;;;;4726889;30;20040;-82
2022/02/15 04:42:32;;;;;;;50.28;25.50;;;2.50;97.80;;;;;;4712166;30;20040;-82
2022/02/15 04:44:58;;;;;;;53.78;28.73;;;2.50;97.60;;;;;;4726532;30;20033;-82
2022/02/15 04:47:34;;;;;;;51.47;26.23;;;2.50;97.50;;;;;;4682634;30;20065;-80
2022/02/15 04:50:00;;;;;;;51.30;27.92;;;2.40;97.50;;;;;;4666268;30;20045;-81
2022/02/15 04:52:26;;;;;;;46.95;26.98;;;2.40;97.20;;;;;;4680496;30;20064;-81
2022/02/15 04:54:52;;;;;;;46.50;27.38;;;2.40;97.10;;;;;;4708916;30;20042;-81
2022/02/15 04:57:18;;;;;;;60.70;29.10;;;2.30;97.20;;;;;;4708882;30;20044;-80
2022/02/15 04:59:44;;;;;;;61.80;33.30;;;2.40;97.20;;;;;;4723457;30;20037;-82
2022/02/15 05:02:19;;;;;;;92.38;44.40;;;2.40;97.40;;;;;;4695327;30;20076;-81
2022/02/15 05:04:49;;;;;;;94.32;47.90;;;2.40;97.30;;;;;;4694528;30;20109;-81
2022/02/15 05:07:21;;;;;;;107.35;51.78;;;2.40;97.00;;;;;;4709152;30;20237;-81
2022/02/15 05:09:48;;;;;;;88.95;44.17;;;2.40;96.90;;;;;;4708812;30;20333;-80
2022/02/15 05:12:17;;;;;;;79.90;39.97;;;2.40;96.90;;;;;;4708858;30;20053;-81
2022/02/15 05:14:44;;;;;;;61.38;32.88;;;2.40;97.00;;;;;;4709039;30;20243;-81
2022/02/15 05:17:13;;;;;;;68.43;30.95;;;2.40;97.70;;;;;;4708722;30;20465;-80
2022/02/15 05:19:41;;;;;;;55.50;30.50;;;2.50;97.80;;;;;;4692332;30;20038;-81
2022/02/15 05:22:08;;;;;;;57.95;28.77;;;2.50;97.60;;;;;;4721358;30;20104;-80
2022/02/15 05:24:44;;;;;;;53.15;28.27;;;2.50;97.40;;;;;;4708757;30;20124;-79
2022/02/15 05:27:10;;;;;;;65.53;33.05;;;2.60;97.20;;;;;;4708837;30;20201;-81
2022/02/15 05:29:43;;;;;;;59.10;31.25;;;2.60;97.20;;;;;;4708412;30;20045;-81
2022/02/15 05:32:24;;;;;;;62.95;32.95;;;2.70;97.10;;;;;;4666901;30;20040;-81
2022/02/15 05:34:52;;;;;;;57.47;33.13;;;2.70;97.00;;;;;;4685159;30;20034;-81
2022/02/15 05:37:19;;;;;;;52.28;28.75;;;2.70;96.80;;;;;;4680174;30;20022;-82
2022/02/15 05:39:48;;;;;;;50.65;27.42;;;2.70;97.30;;;;;;4722774;30;20048;-81
2022/02/15 05:42:23;;;;;;;52.35;27.58;;;2.80;97.20;;;;;;4709740;30;20041;-82
2022/02/15 05:44:49;;;;;;;51.90;29.23;;;2.80;97.00;;;;;;4677192;30;20045;-82
2022/02/15 05:47:15;;;;;;;49.63;26.20;;;2.80;96.80;;;;;;4692139;30;20053;-81
2022/02/15 05:52:38;;;;;;;49.83;25.70;;;2.90;96.70;;;;;;4739291;30;20060;-83
2022/02/15 05:55:10;;;;;;;51.50;29.88;;;3.00;96.60;;;;;;4675521;30;20113;-80
2022/02/15 05:57:36;;;;;;;56.58;28.58;;;3.00;96.30;;;;;;4705458;30;20030;-82
2022/02/15 06:00:10;;;;;;;47.42;29.23;;;3.00;96.30;;;;;;4705903;30;20041;-82
2022/02/15 06:02:43;;;;;;;53.00;28.92;;;3.10;96.10;;;;;;4683095;30;20041;-82
2022/02/15 06:05:14;;;;;;;49.63;26.05;;;3.10;95.90;;;;;;4686004;30;20281;-82
2022/02/15 06:07:45;;;;;;;52.42;26.48;;;3.20;95.80;;;;;;4693312;30;20057;-82
2022/02/15 06:10:20;;;;;;;47.85;27.90;;;3.20;95.70;;;;;;4693399;30;20052;-83
2022/02/15 06:12:48;;;;;;;49.78;26.77;;;3.20;95.50;;;;;;4707780;30;20053;-81
2022/02/15 06:15:14;;;;;;;51.03;27.65;;;3.20;95.40;;;;;;4708429;30;20034;-82
2022/02/15 06:18:04;;;;;;;51.15;29.13;;;3.30;95.40;;;;;;4705071;30;20038;-82
2022/02/15 06:20:35;;;;;;;54.70;31.08;;;3.30;95.20;;;;;;4692231;30;20057;-80
2022/02/15 06:23:03;;;;;;;51.72;30.10;;;3.30;95.40;;;;;;4695850;30;20030;-81
2022/02/15 06:25:30;;;;;;;51.95;30.17;;;3.40;95.30;;;;;;4683041;30;20064;-82
2022/02/15 06:27:57;;;;;;;62.33;29.35;;;3.40;95.10;;;;;;4695999;30;20364;-82
2022/02/15 06:30:41;;;;;;;55.40;29.10;;;3.40;95.20;;;;;;4722686;30;20067;-82
2022/02/15 06:33:14;;;;;;;55.10;27.40;;;3.40;95.10;;;;;;4710611;30;20030;-82
2022/02/15 06:35:40;;;;;;;55.53;28.67;;;3.50;95.00;;;;;;4710796;30;20060;-83
2022/02/15 06:38:10;;;;;;;51.55;27.77;;;3.50;94.90;;;;;;4708954;30;20030;-82
2022/02/15 06:40:38;;;;;;;52.25;28.85;;;3.50;94.90;;;;;;4669671;30;20046;-81
2022/02/15 06:43:10;;;;;;;55.08;28.02;;;3.50;95.00;;;;;;4705935;30;20099;-83
2022/02/15 06:45:38;;;;;;;55.58;28.70;;;3.60;94.90;;;;;;4715776;30;20202;-82
2022/02/15 06:48:05;;;;;;;52.88;28.30;;;3.60;94.90;;;;;;4707470;30;20113;-82
2022/02/15 06:50:34;;;;;;;64.93;28.73;;;3.60;94.90;;;;;;4663121;30;20088;-82
2022/02/15 06:53:03;;;;;;;54.55;28.38;;;3.70;94.80;;;;;;4678930;30;20040;-81
2022/02/15 06:55:58;;;;;;;60.00;29.63;;;3.70;94.90;;;;;;4730959;30;20048;-81
2022/02/15 06:58:24;;;;;;;55.58;29.58;;;3.80;94.80;;;;;;4713251;30;20332;-83
2022/02/15 07:00:51;;;;;;;55.42;27.90;;;3.90;94.60;;;;;;4741043;30;20229;-83
2022/02/15 07:03:18;;;;;;;;;;;3.90;94.50;;;;;;4713465;30;20083;-82
2022/02/15 07:05:44;;;;;;;45.07;21.47;;;4.00;94.30;;;;;;4728980;30;20214;-82
2022/02/15 07:08:10;;;;;;;52.78;27.40;;;4.10;94.30;;;;;;4735913;30;20028;-82
2022/02/15 07:10:36;;;;;;;49.07;27.53;;;4.20;94.20;;;;;;4712082;30;20056;-83
2022/02/15 07:13:03;;;;;;;;;;;4.30;94.10;;;;;;4728925;30;20036;-83
2022/02/15 07:15:34;;;;;;;50.70;26.17;;;4.30;93.70;;;;;;4728335;30;19930;-82
2022/02/15 07:18:22;;;;;;;56.60;28.90;;;4.40;93.70;;;;;;4731386;30;20041;-82
2022/02/15 07:21:23;;;;;;;53.30;28.17;;;4.50;93.60;;;;;;4711179;30;20088;-82
2022/02/15 07:24:09;;;;;;;62.85;28.25;;;4.60;93.40;;;;;;4725806;30;20072;-81
2022/02/15 07:26:54;;;;;;;50.95;26.83;;;4.60;93.20;;;;;;4712028;30;20077;-82
2022/02/15 07:29:30;;;;;;;;;;;4.60;92.80;;;;;;4711819;30;20067;-81
2022/02/15 07:32:11;;;;;;;50.47;26.58;;;4.70;92.80;;;;;;4710890;30;19915;-82
2022/02/15 07:34:40;;;;;;;51.05;28.38;;;4.80;92.80;;;;;;4705009;30;20038;-82
2022/02/15 07:37:06;;;;;;;51.75;28.00;;;4.90;92.60;;;;;;4677162;30;20046;-81
2022/02/15 07:39:32;;;;;;;55.45;28.08;;;4.90;92.50;;;;;;4676500;30;20107;-82
2022/02/15 07:41:58;;;;;;;58.78;29.00;;;5.00;92.40;;;;;;4689742;30;20058;-81
2022/02/15 07:44:29;;;;;;;56.25;27.27;;;5.20;92.60;;;;;;4675366;30;20081;-82
2022/02/15 07:46:54;;;;;;;53.40;27.43;;;5.40;92.60;;;;;;4689444;30;20077;-82
2022/02/15 07:49:20;;;;;;;55.28;25.95;;;5.60;92.30;;;;;;4675576;30;20599;-82
2022/02/15 07:51:50;;;;;;;59.25;30.17;;;5.80;92.00;;;;;;4675798;30;20042;-81
2022/02/15 07:54:18;;;;;;;54.22;28.45;;;6.00;91.60;;;;;;4682210;30;20038;-82
2022/02/15 07:56:44;;;;;;;64.05;25.92;;;6.20;91.30;;;;;;4705305;30;20345;-80
2022/02/15 07:59:10;;;;;;;53.13;26.85;;;6.40;90.80;;;;;;4703421;30;20344;-82
2022/02/15 08:01:35;;;;;;;57.50;28.38;;;6.50;90.30;;;;;;4721598;30;20034;-82
2022/02/15 08:04:01;;;;;;;44.83;26.67;;;6.50;90.10;;;;;;4706852;30;20111;-82
2022/02/15 08:06:30;;;;;;;46.35;28.10;;;6.60;90.20;;;;;;4719578;30;20044;-82
2022/02/15 08:08:57;;;;;;;48.10;28.83;;;6.70;90.10;;;;;;4693649;30;20104;-81
2022/02/15 08:11:24;;;;;;;59.17;28.50;;;6.70;89.90;;;;;;4693499;30;20057;-82
2022/02/15 08:13:51;;;;;;;;;;;6.70;89.80;;;;;;4692224;30;20037;-81
2022/02/15 08:16:17;;;;;;;;;;;6.90;89.50;;;;;;4693335;30;19915;-82
2022/02/15 08:18:43;;;;;;;57.47;28.30;;;6.90;89.00;;;;;;4707601;30;19923;-82
2022/02/15 08:21:10;;;;;;;54.88;30.70;;;6.90;88.80;;;;;;4689558;30;20038;-81
2022/02/15 08:23:37;;;;;;;57.65;27.17;;;6.90;88.60;;;;;;4705531;30;20033;-82
2022/02/15 08:26:04;;;;;;;57.30;28.63;;;6.80;89.80;;;;;;4706191;30;20061;-81
2022/02/15 08:28:31;;;;;;;54.20;30.52;;;6.90;90.00;;;;;;4708984;30;20030;-81
2022/02/15 08:30:57;;;;;;;88.05;29.27;;;7.10;89.70;;;;;;4722557;30;20333;-80
2022/02/15 08:33:23;;;;;;;53.00;28.90;;;7.20;89.50;;;;;;4708403;30;20060;-81
2022/02/15 08:35:49;;;;;;;51.47;28.48;;;7.30;88.80;;;;;;4694504;30;20284;-80
2022/02/15 08:38:15;;;;;;;45.83;26.95;;;7.20;89.10;;;;;;4708831;30;20030;-80
2022/02/15 08:40:40;;;;;;;56.05;27.92;;;7.30;88.60;;;;;;4708744;30;20033;-80
2022/02/15 08:43:06;;;;;;;59.13;29.33;;;7.50;89.10;;;;;;4694288;30;20345;-80
2022/02/15 08:45:32;;;;;;;51.55;29.63;;;7.60;88.70;;;;;;4679582;30;20444;-80
2022/02/15 08:47:58;;;;;;;57.03;32.05;;;7.70;88.20;;;;;;4723108;30;20068;-80
2022/02/15 08:50:25;;;;;;;61.17;30.67;;;7.70;88.10;;;;;;4694006;30;20052;-81
2022/02/15 08:52:50;;;;;;;61.10;30.80;;;7.60;88.50;;;;;;4708643;30;20045;-80
2022/02/15 08:55:16;;;;;;;72.00;32.42;;;7.60;89.50;;;;;;4707488;30;20029;-81
2022/02/15 08:57:42;;;;;;;74.30;33.83;;;7.80;89.20;;;;;;4706884;30;20364;-81
2022/02/15 09:00:10;;;;;;;57.40;31.35;;;7.80;88.70;;;;;;4665787;30;20253;-80
2022/02/15 09:02:36;;;;;;;60.55;31.75;;;7.90;89.00;;;;;;4706743;30;20330;-80
2022/02/15 09:05:04;;;;;;;48.15;29.67;;;8.00;88.80;;;;;;4693778;30;20040;-80
2022/02/15 09:07:30;;;;;;;50.53;29.85;;;8.10;89.00;;;;;;4707148;30;20044;-80
2022/02/15 09:09:56;;;;;;;50.58;30.27;;;8.10;88.80;;;;;;4679343;30;20037;-80
2022/02/15 09:12:21;;;;;;;55.88;29.77;;;8.20;89.10;;;;;;4708096;30;20127;-80
2022/02/15 09:14:47;;;;;;;49.67;27.13;;;8.30;88.80;;;;;;4707994;30;20038;-80
2022/02/15 09:17:13;;;;;;;51.17;30.38;;;8.50;88.40;;;;;;4693609;30;20059;-81
2022/02/15 09:19:39;;;;;;;54.60;29.92;;;8.60;87.40;;;;;;4665233;30;20044;-81
2022/02/15 09:22:05;;;;;;;59.95;27.30;;;8.80;88.00;;;;;;4708053;30;20042;-80
2022/02/15 09:24:31;;;;;;;54.33;28.13;;;8.80;87.60;;;;;;4679164;30;20052;-81
2022/02/15 09:26:58;;;;;;;52.28;29.48;;;8.90;87.50;;;;;;4693537;30;20068;-81
2022/02/15 09:29:24;;;;;;;57.30;28.17;;;8.80;87.20;;;;;;4722329;30;20038;-81
2022/02/15 09:31:50;;;;;;;49.85;27.60;;;8.80;87.50;;;;;;4706740;30;20033;-81
2022/02/15 09:34:22;;;;;;;52.67;28.53;;;8.80;88.10;;;;;;4719514;30;20038;-80
2022/02/15 09:36:51;;;;;;;47.80;26.42;;;8.80;88.30;;;;;;4691718;30;20034;-80
2022/02/15 09:39:18;;;;;;;48.08;27.88;;;8.80;88.40;;;;;;4725411;30;20249;-80
2022/02/15 09:41:45;;;;;;;46.83;25.73;;;8.90;87.10;;;;;;4689742;30;20034;-80
2022/02/15 09:44:11;;;;;;;;;;;9.00;87.50;;;;;;4723182;30;20288;-80
2022/02/15 09:46:42;;;;;;;47.05;26.02;;;9.20;86.90;;;;;;4707275;30;19936;-80
2022/02/15 09:49:48;;;;;;;39.78;25.80;;;9.40;86.60;;;;;;4709528;30;20045;-80
2022/02/15 09:51:54;;;;;;;45.65;25.83;;;9.40;85.40;;;;;;4713159;30;20053;-80
2022/02/15 09:54:20;;;;;;;53.70;24.95;;;9.50;85.10;;;;;;4735694;30;20029;-80
2022/02/15 09:56:46;;;;;;;40.10;25.17;;;9.50;84.90;;;;;;4712860;30;20050;-80
2022/02/15 09:59:14;;;;;;;47.80;26.48;;;9.60;84.70;;;;;;4695571;30;20343;-80
2022/02/15 10:01:40;;;;;;;39.22;25.17;;;9.70;84.10;;;;;;4707925;30;20037;-81
2022/02/15 10:04:08;;;;;;;48.28;25.10;;;9.90;83.40;;;;;;4711829;30;20037;-80
2022/02/15 10:06:35;;;;;;;42.15;24.13;;;10.00;82.70;;;;;;4713020;30;20049;-81
2022/02/15 10:09:03;;;;;;;39.97;25.90;;;10.10;82.20;;;;;;4727787;30;20072;-81
2022/02/15 10:11:42;;;;;;;48.53;24.45;;;10.20;81.60;;;;;;4712763;30;20064;-81
2022/02/15 10:14:09;;;;;;;41.00;23.50;;;10.40;80.60;;;;;;4711891;30;20034;-81
2022/02/15 10:16:49;;;;;;;;;;;10.60;80.70;;;;;;4711330;30;20059;-81
2022/02/15 10:19:27;;;;;;;40.42;23.85;;;10.70;79.20;;;;;;4714251;30;19914;-81
2022/02/15 10:21:58;;;;;;;46.55;22.52;;;10.70;78.10;;;;;;4711044;30;20206;-80
2022/02/15 10:24:26;;;;;;;49.45;24.65;;;10.70;78.30;;;;;;4697671;30;20034;-81
2022/02/15 10:26:59;;;;;;;48.15;24.42;;;10.80;77.70;;;;;;4712807;30;20040;-81
2022/02/15 10:29:27;;;;;;;41.35;24.30;;;10.80;76.80;;;;;;4727318;30;20036;-81
2022/02/15 10:32:01;;;;;;;45.58;25.52;;;10.90;76.60;;;;;;4713161;30;20104;-81
2022/02/15 10:34:28;;;;;;;49.03;24.20;;;10.80;76.10;;;;;;4727515;30;20029;-81
2022/02/15 10:37:03;;;;;;;41.28;23.83;;;10.90;76.80;;;;;;4698673;30;20093;-81
2022/02/15 10:39:37;;;;;;;45.08;23.50;;;11.10;76.40;;;;;;4713961;30;20029;-81
2022/02/15 10:42:04;;;;;;;48.97;24.83;;;11.30;75.60;;;;;;4727244;30;20083;-81
2022/02/15 10:44:30;;;;;;;50.20;23.52;;;11.40;75.20;;;;;;4698944;30;20030;-81
2022/02/15 10:46:56;;;;;;;48.97;24.92;;;11.50;75.00;;;;;;4712473;30;20234;-81
2022/02/15 10:49:21;;;;;;;36.70;24.75;;;11.50;74.10;;;;;;4712949;30;20041;-81
2022/02/15 10:51:47;;;;;;;45.28;24.48;;;11.40;74.10;;;;;;4713329;30;20034;-81
2022/02/15 10:54:13;;;;;;;54.72;24.40;;;11.40;73.90;;;;;;4684272;30;20037;-81
2022/02/15 10:56:43;;;;;;;47.13;23.55;;;11.40;73.70;;;;;;4684370;30;20033;-81
2022/02/15 10:59:11;;;;;;;40.72;23.73;;;11.40;74.00;;;;;;4707424;30;20063;-81
2022/02/15 11:01:43;;;;;;;45.55;24.38;;;11.30;73.90;;;;;;4704640;30;20038;-81
2022/02/15 11:04:09;;;;;;;45.28;24.20;;;11.20;74.20;;;;;;4724524;30;20037;-81
2022/02/15 11:06:35;;;;;;;42.53;23.80;;;11.30;74.30;;;;;;4710129;30;20055;-82
2022/02/15 11:09:06;;;;;;;36.53;23.15;;;11.30;73.90;;;;;;4710485;30;20334;-82
2022/02/15 11:11:56;;;;;;;47.42;25.40;;;11.20;73.30;;;;;;4704811;30;20048;-81
2022/02/15 11:14:22;;;;;;;39.60;24.48;;;11.20;72.70;;;;;;4710090;30;20052;-81
2022/02/15 11:16:50;;;;;;;44.72;23.77;;;11.40;73.70;;;;;;4695408;30;20033;-81
2022/02/15 11:19:16;;;;;;;43.35;25.42;;;11.60;73.10;;;;;;4695666;30;20199;-81
2022/02/15 11:21:53;;;;;;;47.15;25.38;;;11.50;71.20;;;;;;4695634;30;20048;-81
2022/02/15 11:24:19;;;;;;;47.65;25.48;;;11.50;72.50;;;;;;4724626;30;20237;-81
2022/02/15 11:26:44;;;;;;;35.70;23.80;;;11.60;73.10;;;;;;4709639;30;20048;-81
2022/02/15 11:29:21;;;;;;;40.88;24.08;;;11.80;72.80;;;;;;4695463;30;20034;-81
2022/02/15 11:31:47;;;;;;;;;;;11.90;70.90;;;;;;4724666;30;20109;-81
2022/02/15 11:34:13;;;;;;;47.88;25.20;;;12.00;70.70;;;;;;4724079;30;19961;-80
2022/02/15 11:36:50;;;;;;;46.30;24.20;;;12.20;71.10;;;;;;4681232;30;20041;-81
2022/02/15 11:39:24;;;;;;;45.25;25.23;;;12.40;69.90;;;;;;4709785;30;20279;-81
2022/02/15 11:41:51;;;;;;;43.72;24.50;;;12.50;69.20;;;;;;4709557;30;20037;-81
2022/02/15 11:44:34;;;;;;;40.47;24.10;;;12.30;68.40;;;;;;4709532;30;20038;-81
2022/02/15 11:47:15;;;;;;;35.33;21.80;;;12.20;69.50;;;;;;4723701;30;20120;-81
2022/02/15 11:50:09;;;;;;;38.40;21.65;;;12.30;69.60;;;;;;4708705;30;20101;-82
2022/02/15 11:52:35;;;;;;;42.70;23.38;;;12.20;69.20;;;;;;4708725;30;20032;-82
2022/02/15 11:55:10;;;;;;;38.17;23.88;;;12.20;70.20;;;;;;4703414;30;20069;-82
2022/02/15 11:57:36;;;;;;;41.50;22.85;;;12.30;69.80;;;;;;4714676;30;20048;-83
2022/02/15 12:00:05;;;;;;;45.70;22.00;;;12.50;69.70;;;;;;4706356;30;20025;-81
2022/02/15 12:02:38;;;;;;;40.85;23.55;;;12.50;69.50;;;;;;4721118;30;20341;-81
2022/02/15 12:05:06;;;;;;;35.40;21.90;;;12.50;69.50;;;;;;4705732;30;20329;-82
2022/02/15 12:07:33;;;;;;;37.35;22.98;;;12.60;69.30;;;;;;4693036;30;20061;-81
2022/02/15 12:10:01;;;;;;;44.28;22.73;;;12.50;68.70;;;;;;4718075;30;20359;-81
2022/02/15 12:12:36;;;;;;;36.15;23.75;;;12.60;69.40;;;;;;4705335;30;20219;-81
2022/02/15 12:15:06;;;;;;;35.15;23.20;;;12.70;69.40;;;;;;4705660;30;20285;-81
2022/02/15 12:17:35;;;;;;;36.38;22.73;;;12.80;69.20;;;;;;4707365;30;20033;-81
2022/02/15 12:20:01;;;;;;;37.88;23.65;;;12.90;68.20;;;;;;4722728;30;20583;-82
2022/02/15 12:22:28;;;;;;;36.20;23.02;;;12.90;68.30;;;;;;4698997;30;20041;-81
2022/02/15 12:25:16;;;;;;;37.05;23.73;;;13.00;67.90;;;;;;4725934;30;20050;-81
2022/02/15 12:27:46;;;;;;;36.78;23.77;;;12.90;67.90;;;;;;4724513;30;20096;-81
2022/02/15 12:30:14;;;;;;;37.75;22.75;;;12.80;68.20;;;;;;4709888;30;20083;-81
2022/02/15 12:32:47;;;;;;;33.63;22.55;;;12.80;67.90;;;;;;4706916;30;20026;-82
2022/02/15 12:35:21;;;;;;;35.72;22.00;;;12.80;67.40;;;;;;4723419;30;20195;-81
2022/02/15 12:37:49;;;;;;;41.50;23.70;;;12.70;67.90;;;;;;4724818;30;20041;-81
2022/02/15 12:40:16;;;;;;;40.30;24.17;;;12.80;68.10;;;;;;4725675;30;20055;-81
2022/02/15 12:42:41;;;;;;;39.17;23.52;;;12.90;68.10;;;;;;4710982;30;20060;-82
2022/02/15 12:45:11;;;;;;;35.38;23.70;;;13.00;68.30;;;;;;4725345;30;20342;-81
2022/02/15 12:47:43;;;;;;;35.75;22.35;;;13.00;67.00;;;;;;4696378;30;20292;-82
2022/02/15 12:50:12;;;;;;;36.22;21.83;;;13.10;67.10;;;;;;4696645;30;20044;-82
2022/02/15 12:52:39;;;;;;;41.53;23.20;;;13.00;66.60;;;;;;4725913;30;20340;-81
2022/02/15 12:55:13;;;;;;;36.80;23.15;;;13.10;67.60;;;;;;4713300;30;20120;-81
2022/02/15 12:57:42;;;;;;;36.55;21.80;;;13.30;65.90;;;;;;4714272;30;20044;-82
2022/02/15 13:00:10;;;;;;;39.15;22.15;;;13.40;65.80;;;;;;4700387;30;20082;-81
2022/02/15 13:02:36;;;;;;;35.72;20.50;;;13.60;65.50;;;;;;4702079;30;20077;-81
2022/02/15 13:05:02;;;;;;;39.10;21.40;;;13.60;64.00;;;;;;4713608;30;20072;-81
2022/02/15 13:07:29;;;;;;;29.90;20.05;;;13.60;63.80;;;;;;4706750;30;20037;-81
2022/02/15 13:10:01;;;;;;;38.03;21.35;;;13.60;61.10;;;;;;4719113;30;20037;-82
2022/02/15 13:12:33;;;;;;;40.08;21.70;;;13.40;61.60;;;;;;4715118;30;20082;-82
2022/02/15 13:15:00;;;;;;;40.17;20.77;;;13.40;62.20;;;;;;4700969;30;20030;-81
2022/02/15 13:17:43;;;;;;;;;;;13.50;61.80;;;;;;4721564;30;20032;-82
2022/02/15 13:20:14;;;;;;;36.15;20.77;;;13.40;60.90;;;;;;4732360;30;19914;-81
2022/02/15 13:22:39;;;;;;;40.40;22.55;;;13.40;60.70;;;;;;4720841;30;20042;-81
2022/02/15 13:25:06;;;;;;;49.65;23.08;;;13.40;61.20;;;;;;4684038;30;20206;-82
2022/02/15 13:27:33;;;;;;;30.40;19.13;;;13.40;62.90;;;;;;4698564;30;20033;-81
2022/02/15 13:30:00;;;;;;;32.40;17.35;;;13.40;59.90;;;;;;4712234;30;20053;-82
2022/02/15 13:32:35;;;;;;;29.73;19.60;;;13.30;60.30;;;;;;4693362;30;20084;-79
2022/02/15 13:35:04;;;;;;;30.88;18.08;;;13.30;59.80;;;;;;4707673;30;20222;-81
2022/02/15 13:37:36;;;;;;;25.77;15.43;;;13.20;59.60;;;;;;4706663;30;20026;-81
2022/02/15 13:40:05;;;;;;;26.75;13.93;;;13.20;59.10;;;;;;4705499;30;20237;-81
2022/02/15 13:42:31;;;;;;;26.63;15.57;;;13.00;57.50;;;;;;4716921;30;20050;-81
2022/02/15 13:44:58;;;;;;;29.70;14.05;;;12.80;57.60;;;;;;4704177;30;20287;-81
2022/02/15 13:47:28;;;;;;;31.92;14.88;;;12.70;58.20;;;;;;4691013;30;20388;-81
2022/02/15 13:49:54;;;;;;;28.02;15.00;;;12.60;58.60;;;;;;4728384;30;20345;-81
2022/02/15 13:52:19;;;;;;;28.85;15.10;;;12.50;58.40;;;;;;4704717;30;20404;-81
2022/02/15 13:54:46;;;;;;;25.95;15.75;;;12.50;58.60;;;;;;4689417;30;20050;-81
2022/02/15 13:57:13;;;;;;;25.30;15.47;;;12.50;58.80;;;;;;4705322;30;20168;-81
2022/02/15 13:59:39;;;;;;;;;;;12.50;59.20;;;;;;4707600;30;20046;-80
2022/02/15 14:02:05;;;;;;;32.30;17.30;;;12.40;59.10;;;;;;4721955;30;19942;-80
2022/02/15 14:04:31;;;;;;;37.03;17.10;;;12.40;59.70;;;;;;4714831;30;20034;-81
2022/02/15 14:06:58;;;;;;;31.17;16.60;;;12.50;59.80;;;;;;4706725;30;20360;-80
2022/02/15 14:09:24;;;;;;;28.23;17.08;;;12.50;59.60;;;;;;4704686;30;20037;-80
2022/02/15 14:11:50;;;;;;;36.72;19.80;;;12.50;59.70;;;;;;4692169;30;20250;-80
2022/02/15 14:14:16;;;;;;;26.60;16.77;;;12.50;60.10;;;;;;4693067;30;20042;-80
2022/02/15 14:16:42;;;;;;;29.58;16.92;;;12.50;60.20;;;;;;4722352;30;20041;-81
2022/02/15 14:19:08;;;;;;;29.90;16.55;;;12.60;59.90;;;;;;4700389;30;20057;-81
2022/02/15 14:21:37;;;;;;;30.25;15.95;;;12.60;59.70;;;;;;4699820;30;20041;-81
2022/02/15 14:24:09;;;;;;;25.63;15.57;;;12.70;57.90;;;;;;4708357;30;20159;-81
2022/02/15 14:26:37;;;;;;;29.27;17.40;;;12.60;58.90;;;;;;4707609;30;20046;-81
2022/02/15 14:29:03;;;;;;;23.83;15.52;;;12.60;59.20;;;;;;4679486;30;20049;-81
2022/02/15 14:31:29;;;;;;;28.57;16.00;;;12.70;59.40;;;;;;4701579;30;20230;-81
2022/02/15 14:33:56;;;;;;;36.80;15.77;;;12.80;59.80;;;;;;4690127;30;20046;-81
2022/02/15 14:36:24;;;;;;;27.83;16.27;;;12.70;59.80;;;;;;4678712;30;20053;-82
2022/02/15 14:38:49;;;;;;;25.25;16.70;;;12.70;60.40;;;;;;4718820;30;20367;-81
2022/02/15 14:41:15;;;;;;;29.73;15.88;;;12.70;60.50;;;;;;4696443;30;20049;-81
2022/02/15 14:43:41;;;;;;;32.83;16.90;;;12.70;60.80;;;;;;4710563;30;20241;-81
2022/02/15 14:46:07;;;;;;;24.85;17.02;;;12.50;60.90;;;;;;4708455;30;20069;-81
2022/02/15 14:48:33;;;;;;;32.53;15.90;;;12.40;61.30;;;;;;4688247;30;20053;-81
2022/02/15 14:51:00;;;;;;;30.73;16.43;;;12.40;61.60;;;;;;4707521;30;20045;-81
2022/02/15 14:53:26;;;;;;;31.55;17.45;;;12.30;61.50;;;;;;4710613;30;20107;-81
2022/02/15 14:55:52;;;;;;;29.70;16.30;;;12.40;61.70;;;;;;4709951;30;20168;-80
2022/02/15 14:58:18;;;;;;;25.30;16.70;;;12.40;61.90;;;;;;4708650;30;20058;-81
2022/02/15 15:00:44;;;;;;;32.70;16.77;;;12.40;61.70;;;;;;4708857;30;20029;-81
2022/02/15 15:03:10;;;;;;;33.83;17.67;;;12.30;61.80;;;;;;4708672;30;20065;-81
2022/02/15 15:05:36;;;;;;;35.97;17.33;;;12.10;61.90;;;;;;4705923;30;20104;-81
2022/02/15 15:08:03;;;;;;;32.45;17.55;;;12.00;62.20;;;;;;4706972;30;20037;-81
2022/02/15 15:10:29;;;;;;;33.83;17.42;;;12.00;62.50;;;;;;4722655;30;20042;-82
2022/02/15 15:12:56;;;;;;;39.70;17.92;;;11.90;62.70;;;;;;4723380;30;20257;-82
2022/02/15 15:15:22;;;;;;;28.80;16.65;;;11.80;62.90;;;;;;4723784;30;20041;-82
2022/02/15 15:17:48;;;;;;;30.40;18.08;;;11.70;63.20;;;;;;4693371;30;20076;-81
2022/02/15 15:20:14;;;;;;;31.98;16.65;;;11.60;63.40;;;;;;4665740;30;20042;-81
2022/02/15 15:22:41;;;;;;;27.65;17.80;;;11.60;63.80;;;;;;4708730;30;20056;-82
2022/02/15 15:25:09;;;;;;;32.38;18.80;;;11.60;63.90;;;;;;4719167;30;20045;-82
2022/02/15 15:27:37;;;;;;;28.80;16.90;;;11.50;64.50;;;;;;4709242;30;20044;-81
2022/02/15 15:30:06;;;;;;;24.92;15.40;;;11.40;65.90;;;;;;4709725;30;20068;-82
2022/02/15 15:32:32;;;;;;;22.02;15.40;;;11.40;66.70;;;;;;4709757;30;20042;-82
2022/02/15 15:34:58;;;;;;;28.00;15.70;;;11.30;67.30;;;;;;4692729;30;20096;-81
2022/02/15 15:37:32;;;;;;;26.08;15.00;;;11.30;67.80;;;;;;4694742;30;20125;-81
2022/02/15 15:39:58;;;;;;;24.45;15.35;;;11.20;68.60;;;;;;4688879;30;20041;-82
2022/02/15 15:42:24;;;;;;;30.25;16.98;;;11.10;68.90;;;;;;4714544;30;20277;-82
2022/02/15 15:44:50;;;;;;;22.77;15.65;;;11.10;69.10;;;;;;4709204;30;20048;-82
2022/02/15 15:47:20;;;;;;;27.10;14.75;;;11.00;69.50;;;;;;4676131;30;20380;-82
2022/02/15 15:49:46;;;;;;;24.95;14.30;;;10.90;69.70;;;;;;4687918;30;20049;-81
2022/02/15 15:52:13;;;;;;;21.08;12.80;;;10.90;69.90;;;;;;4694399;30;20069;-81
2022/02/15 15:54:39;;;;;;;21.10;13.35;;;10.80;70.00;;;;;;4683880;30;20096;-81
2022/02/15 15:57:05;;;;;;;25.50;14.70;;;10.80;70.30;;;;;;4699562;30;20041;-81
2022/02/15 15:59:31;;;;;;;19.88;13.73;;;10.70;70.50;;;;;;4694123;30;20065;-81
2022/02/15 16:01:57;;;;;;;21.80;13.93;;;10.60;71.10;;;;;;4708563;30;20052;-81
2022/02/15 16:04:23;;;;;;;23.38;12.55;;;10.50;71.70;;;;;;4695032;30;20034;-83
2022/02/15 16:06:50;;;;;;;24.52;12.38;;;10.50;72.30;;;;;;4705461;30;20038;-81
2022/02/15 16:09:17;;;;;;;21.42;12.18;;;10.40;72.40;;;;;;4692880;30;20056;-81
2022/02/15 16:11:44;;;;;;;22.92;13.13;;;10.30;72.80;;;;;;4722690;30;20049;-81
2022/02/15 16:14:11;;;;;;;17.48;12.15;;;10.20;73.30;;;;;;4709185;30;20056;-81
2022/02/15 16:16:38;;;;;;;25.23;10.48;;;10.10;73.80;;;;;;4708650;30;20092;-81
2022/02/15 16:19:06;;;;;;;24.48;12.05;;;10.00;75.10;;;;;;4708097;30;20033;-81
2022/02/15 16:21:33;;;;;;;21.80;11.90;;;10.00;74.50;;;;;;4709698;30;20184;-82
2022/02/15 16:23:59;;;;;;;19.27;10.98;;;9.90;75.20;;;;;;4688690;30;20041;-81
2022/02/15 16:26:25;;;;;;;16.37;10.40;;;9.90;75.70;;;;;;4706445;30;20037;-82
2022/02/15 16:28:50;;;;;;;15.85;10.63;;;9.80;76.00;;;;;;4705829;30;20057;-82
2022/02/15 16:31:42;;;;;;;16.75;10.98;;;9.80;76.40;;;;;;4675831;30;20042;-82